Time;durP1;ratioP1;P1;durP2;ratioP2;P2;SDS_P1;SDS_P2;PMS_P1;PMS_P2;Temp;Humidity;BMP_temperature;BMP_pressure;BME280_temperature;BME280_humidity;BME280_pressure;Samples;Min_cycle;Max_cycle;Signal;HPM_P1;HPM_P2
2023/06/16 00:01:43;;;;;;;12.55;7.95;;;17.00;99.90;;;;;;5088652;27;20035;-74
2023/06/16 00:04:09;;;;;;;13.30;7.90;;;17.00;99.90;;;;;;5070406;28;20048;-76
2023/06/16 00:06:36;;;;;;;10.80;7.53;;;16.90;99.90;;;;;;5117477;27;20497;-76
2023/06/16 00:09:02;;;;;;;12.40;7.50;;;16.80;99.90;;;;;;5129147;27;20107;-76
2023/06/16 00:11:28;;;;;;;11.43;7.55;;;16.90;99.90;;;;;;5094801;28;20036;-75
2023/06/16 00:13:56;;;;;;;14.50;8.40;;;16.90;99.90;;;;;;5100747;28;20067;-75
2023/06/16 00:16:23;;;;;;;11.38;7.40;;;16.90;99.90;;;;;;5101933;28;20040;-75
2023/06/16 00:18:51;;;;;;;9.48;7.82;;;16.80;99.90;;;;;;5106001;28;20504;-75
2023/06/16 00:21:37;;;;;;;13.68;8.45;;;16.80;99.90;;;;;;5110877;28;20039;-74
2023/06/16 00:24:09;;;;;;;13.43;7.55;;;16.80;99.90;;;;;;5077160;28;20040;-73
2023/06/16 00:26:35;;;;;;;13.10;7.95;;;16.70;99.90;;;;;;5095322;28;20433;-75
2023/06/16 00:29:05;;;;;;;11.55;7.80;;;16.70;99.90;;;;;;5088073;28;20040;-75
2023/06/16 00:31:31;;;;;;;11.32;7.72;;;16.70;99.90;;;;;;5098476;28;20036;-74
2023/06/16 00:33:58;;;;;;;11.13;7.38;;;16.70;99.90;;;;;;5107134;28;20040;-74
2023/06/16 00:36:23;;;;;;;11.23;7.60;;;16.70;99.90;;;;;;5087285;28;20469;-72
2023/06/16 00:38:49;;;;;;;9.15;7.53;;;16.70;99.90;;;;;;5113613;27;20047;-74
2023/06/16 00:41:14;;;;;;;11.25;7.63;;;16.70;99.90;;;;;;5089518;28;20314;-75
2023/06/16 00:43:40;;;;;;;9.50;7.63;;;16.70;99.90;;;;;;5100138;28;20028;-75
2023/06/16 00:46:09;;;;;;;8.45;7.15;;;16.60;99.90;;;;;;5104783;28;20042;-74
2023/06/16 00:48:35;;;;;;;9.82;7.80;;;16.60;99.90;;;;;;5100644;27;20040;-73
2023/06/16 00:51:03;;;;;;;10.40;7.50;;;16.60;99.90;;;;;;5084711;28;20063;-74
2023/06/16 00:53:32;;;;;;;12.15;7.05;;;16.70;99.90;;;;;;5074385;28;20043;-75
2023/06/16 00:55:58;;;;;;;9.63;7.05;;;16.70;99.90;;;;;;5113520;28;20092;-75
2023/06/16 00:58:24;;;;;;;11.50;7.35;;;16.70;99.90;;;;;;5097493;28;20032;-76
2023/06/16 01:00:51;;;;;;;10.55;7.32;;;16.60;99.90;;;;;;5089436;28;20443;-75
2023/06/16 01:03:17;;;;;;;12.13;7.30;;;16.70;99.90;;;;;;5095295;28;20056;-75
2023/06/16 01:05:43;;;;;;;10.85;7.72;;;16.60;99.90;;;;;;5098430;28;20092;-74
2023/06/16 01:08:18;;;;;;;11.07;6.55;;;16.50;99.90;;;;;;5080698;28;20048;-74
2023/06/16 01:10:50;;;;;;;8.75;7.20;;;16.50;99.90;;;;;;5118009;27;20039;-77
2023/06/16 01:13:56;;;;;;;9.38;6.75;;;16.50;99.90;;;;;;5121728;27;20048;-73
2023/06/16 01:16:28;;;;;;;10.38;7.13;;;16.50;99.90;;;;;;5088900;28;20055;-75
2023/06/16 01:18:55;;;;;;;9.60;7.45;;;16.50;99.90;;;;;;5086224;28;20039;-74
2023/06/16 01:21:45;;;;;;;9.88;7.03;;;16.50;99.90;;;;;;5104550;28;20059;-75
2023/06/16 01:24:16;;;;;;;10.00;7.22;;;16.40;99.90;;;;;;5083546;28;20074;-75
2023/06/16 01:26:46;;;;;;;9.00;7.00;;;16.40;99.90;;;;;;5106758;27;20122;-75
2023/06/16 01:29:16;;;;;;;12.50;7.43;;;16.40;99.90;;;;;;5108843;27;20503;-73
2023/06/16 01:31:44;;;;;;;9.85;7.13;;;16.40;99.90;;;;;;5103711;27;20036;-74
2023/06/16 01:34:12;;;;;;;10.20;7.47;;;16.40;99.90;;;;;;5106757;28;20074;-75
2023/06/16 01:36:40;;;;;;;11.85;7.90;;;16.40;99.90;;;;;;5099608;28;20048;-75
2023/06/16 01:39:07;;;;;;;11.82;8.10;;;16.30;99.90;;;;;;5081398;28;20040;-76
2023/06/16 01:41:36;;;;;;;11.18;7.35;;;16.30;99.90;;;;;;5109903;28;20046;-74
2023/06/16 01:44:04;;;;;;;13.23;8.90;;;16.20;99.90;;;;;;5091530;28;20114;-75
2023/06/16 01:46:31;;;;;;;12.15;8.48;;;16.30;99.90;;;;;;5105579;28;20059;-75
2023/06/16 01:48:57;;;;;;;12.47;9.43;;;16.30;99.90;;;;;;5096046;28;20047;-75
2023/06/16 01:51:24;;;;;;;12.90;8.80;;;16.20;99.90;;;;;;5112969;27;20289;-74
2023/06/16 01:53:51;;;;;;;14.43;8.40;;;16.20;99.90;;;;;;5112464;27;20051;-75
2023/06/16 01:56:16;;;;;;;14.80;10.05;;;16.10;99.90;;;;;;5096246;28;20043;-75
2023/06/16 01:58:42;;;;;;;12.30;9.30;;;16.10;99.90;;;;;;5113837;27;20091;-75
2023/06/16 02:01:11;;;;;;;19.13;9.68;;;16.20;99.90;;;;;;5125325;27;20043;-74
2023/06/16 02:04:01;;;;;;;11.82;9.15;;;16.10;99.90;;;;;;5116630;27;20054;-74
2023/06/16 02:06:33;;;;;;;11.30;9.82;;;16.00;99.90;;;;;;5116795;27;20050;-74
2023/06/16 02:09:02;;;;;;;11.57;10.13;;;15.90;99.90;;;;;;5109320;27;20067;-74
2023/06/16 02:11:29;;;;;;;13.00;9.82;;;15.90;99.90;;;;;;5099474;28;20477;-73
2023/06/16 02:13:55;;;;;;;12.93;9.55;;;15.90;99.90;;;;;;5109365;28;20063;-75
2023/06/16 02:16:20;;;;;;;14.38;10.65;;;15.90;99.90;;;;;;5085842;28;20079;-74
2023/06/16 02:18:53;;;;;;;14.00;11.55;;;16.00;99.90;;;;;;5112205;27;20416;-75
2023/06/16 02:21:19;;;;;;;11.90;10.60;;;16.00;99.90;;;;;;5098692;27;20066;-74
2023/06/16 02:23:45;;;;;;;14.10;11.68;;;16.00;99.90;;;;;;5123538;27;20068;-74
2023/06/16 02:26:11;;;;;;;12.75;10.80;;;15.90;99.90;;;;;;5113403;27;20044;-74
2023/06/16 02:28:36;;;;;;;15.40;10.95;;;15.90;99.90;;;;;;5111366;27;20036;-73
2023/06/16 02:31:02;;;;;;;16.15;12.18;;;15.80;99.90;;;;;;5096612;28;20036;-73
2023/06/16 02:33:28;;;;;;;14.43;11.18;;;15.80;99.90;;;;;;5098232;28;20044;-73
2023/06/16 02:35:53;;;;;;;17.30;12.35;;;15.80;99.90;;;;;;5086921;28;20047;-73
2023/06/16 02:38:19;;;;;;;13.32;11.63;;;15.80;99.90;;;;;;5102979;28;20058;-75
2023/06/16 02:40:45;;;;;;;20.48;13.32;;;15.80;99.90;;;;;;5113585;27;20109;-73
2023/06/16 02:43:10;;;;;;;15.65;12.68;;;15.80;99.90;;;;;;5104932;28;20040;-73
2023/06/16 02:45:36;;;;;;;18.05;13.32;;;15.80;99.90;;;;;;5119318;27;20043;-72
2023/06/16 02:48:03;;;;;;;16.48;13.82;;;15.80;99.90;;;;;;5092650;28;20122;-74
2023/06/16 02:50:28;;;;;;;17.17;14.43;;;15.80;99.90;;;;;;5087536;28;20044;-74
2023/06/16 02:52:55;;;;;;;17.40;13.80;;;15.80;99.90;;;;;;5107285;28;20444;-73
2023/06/16 02:55:21;;;;;;;16.63;13.68;;;15.70;99.90;;;;;;5111206;28;20043;-73
2023/06/16 02:57:46;;;;;;;18.17;14.13;;;15.70;99.90;;;;;;5101264;28;20078;-74
2023/06/16 03:00:13;;;;;;;18.45;15.27;;;15.80;99.90;;;;;;5109778;28;20450;-74
2023/06/16 03:02:38;;;;;;;20.10;14.95;;;15.70;99.90;;;;;;5111222;28;20046;-73
2023/06/16 03:05:04;;;;;;;18.73;14.23;;;15.70;99.90;;;;;;5108031;28;20097;-72
2023/06/16 03:07:33;;;;;;;17.08;14.20;;;15.70;99.90;;;;;;5103907;28;20122;-74
2023/06/16 03:09:59;;;;;;;17.25;14.25;;;15.60;99.90;;;;;;5102993;28;20059;-74
2023/06/16 03:12:25;;;;;;;18.50;13.70;;;15.60;99.90;;;;;;5111065;28;20044;-73
2023/06/16 03:14:51;;;;;;;19.27;15.65;;;15.60;99.90;;;;;;5096991;28;20095;-74
2023/06/16 03:17:20;;;;;;;17.77;14.93;;;15.60;99.90;;;;;;5106303;28;20044;-73
2023/06/16 03:19:49;;;;;;;18.75;15.07;;;15.60;99.90;;;;;;5109789;27;20047;-74
2023/06/16 03:22:15;;;;;;;18.55;15.05;;;15.60;99.90;;;;;;5069999;28;20697;-73
2023/06/16 03:24:43;;;;;;;23.08;14.55;;;15.60;99.90;;;;;;5124728;27;20046;-73
2023/06/16 03:27:09;;;;;;;23.05;15.57;;;15.50;99.90;;;;;;5110904;27;20370;-74
2023/06/16 03:29:35;;;;;;;21.95;16.23;;;15.60;99.90;;;;;;5102294;27;20073;-74
2023/06/16 03:32:01;;;;;;;23.15;16.10;;;15.60;99.90;;;;;;5082868;28;20479;-74
2023/06/16 03:34:29;;;;;;;17.90;15.20;;;15.60;99.90;;;;;;5097667;28;20059;-74
2023/06/16 03:36:56;;;;;;;18.83;15.18;;;15.60;99.90;;;;;;5086518;28;20051;-74
2023/06/16 03:39:22;;;;;;;20.85;14.93;;;15.80;99.90;;;;;;5104821;28;20132;-73
2023/06/16 03:41:52;;;;;;;17.40;15.50;;;15.60;99.90;;;;;;5109507;27;20180;-74
2023/06/16 03:44:17;;;;;;;19.85;15.43;;;15.60;99.90;;;;;;5104996;28;20504;-74
2023/06/16 03:46:43;;;;;;;21.15;16.52;;;15.60;99.90;;;;;;5106898;27;20031;-74
2023/06/16 03:49:09;;;;;;;21.10;15.10;;;15.70;99.90;;;;;;5092014;28;20043;-74
2023/06/16 03:51:35;;;;;;;21.25;16.48;;;15.70;99.90;;;;;;5097230;28;20074;-73
2023/06/16 03:54:01;;;;;;;18.23;15.25;;;15.70;99.90;;;;;;5101651;28;20401;-74
2023/06/16 03:56:26;;;;;;;17.77;14.55;;;15.70;99.90;;;;;;5118285;27;20123;-73
2023/06/16 03:58:52;;;;;;;18.25;15.65;;;15.70;99.90;;;;;;5104089;27;20513;-72
2023/06/16 04:01:22;;;;;;;19.77;15.45;;;15.70;99.90;;;;;;5105149;28;20489;-73
2023/06/16 04:03:49;;;;;;;17.10;14.52;;;15.70;99.90;;;;;;5071724;28;20400;-75
2023/06/16 04:06:15;;;;;;;19.35;15.65;;;15.80;99.90;;;;;;5106268;28;20125;-73
2023/06/16 04:08:41;;;;;;;24.70;16.77;;;15.80;99.90;;;;;;5109037;28;20044;-73
2023/06/16 04:11:07;;;;;;;23.42;16.00;;;15.80;99.90;;;;;;5088532;28;20430;-75
2023/06/16 04:13:32;;;;;;;19.88;16.02;;;15.90;99.90;;;;;;5078077;28;20477;-74
2023/06/16 04:15:58;;;;;;;18.67;16.35;;;15.90;99.90;;;;;;5084196;28;20031;-74
2023/06/16 04:18:24;;;;;;;19.42;16.25;;;15.90;99.90;;;;;;5109988;27;20032;-74
2023/06/16 04:20:50;;;;;;;19.35;16.08;;;15.90;99.90;;;;;;5114100;27;20052;-73
2023/06/16 04:23:16;;;;;;;17.70;15.80;;;15.90;99.90;;;;;;5103185;28;20047;-74
2023/06/16 04:25:42;;;;;;;20.63;17.83;;;16.00;99.90;;;;;;5109167;28;20036;-74
2023/06/16 04:28:13;;;;;;;21.55;18.35;;;16.00;99.90;;;;;;5097361;28;20397;-73
2023/06/16 04:30:43;;;;;;;24.48;18.67;;;16.00;99.90;;;;;;5086780;28;20119;-74
2023/06/16 04:33:10;;;;;;;24.60;20.42;;;16.10;99.90;;;;;;5103446;28;20047;-74
2023/06/16 04:35:42;;;;;;;27.48;20.75;;;16.10;99.90;;;;;;5089173;28;20039;-73
2023/06/16 04:38:10;;;;;;;26.33;20.80;;;16.20;99.90;;;;;;5084886;28;20044;-73
2023/06/16 04:40:37;;;;;;;21.85;19.33;;;16.20;99.90;;;;;;5084495;28;20561;-74
2023/06/16 04:43:03;;;;;;;23.50;19.50;;;16.20;99.90;;;;;;5109909;27;20110;-74
2023/06/16 04:45:28;;;;;;;27.88;23.02;;;16.30;99.90;;;;;;5097914;28;20493;-74
2023/06/16 04:47:54;;;;;;;33.22;24.05;;;16.50;99.90;;;;;;5102676;28;20047;-74
2023/06/16 04:50:20;;;;;;;26.45;22.75;;;16.50;99.90;;;;;;5103254;27;20040;-73
2023/06/16 04:52:47;;;;;;;30.67;22.02;;;16.50;99.90;;;;;;5107240;27;20087;-75
2023/06/16 04:55:16;;;;;;;28.75;22.50;;;16.60;99.90;;;;;;5116504;27;20039;-75
2023/06/16 04:57:42;;;;;;;26.65;21.13;;;16.70;99.90;;;;;;5106564;27;20043;-74
2023/06/16 05:00:10;;;;;;;30.98;22.55;;;16.80;99.90;;;;;;5097480;27;20039;-75
2023/06/16 05:02:37;;;;;;;26.63;21.95;;;16.80;99.90;;;;;;5124351;27;20404;-75
2023/06/16 05:05:03;;;;;;;25.67;20.75;;;16.70;99.90;;;;;;5077772;28;20040;-75
2023/06/16 05:07:29;;;;;;;27.90;20.42;;;16.80;99.90;;;;;;5107186;27;20036;-73
2023/06/16 05:09:55;;;;;;;21.38;19.08;;;16.90;99.90;;;;;;5109571;28;20615;-74
2023/06/16 05:12:21;;;;;;;24.33;18.60;;;16.90;99.90;;;;;;5115986;27;20046;-74
2023/06/16 05:14:47;;;;;;;24.08;18.15;;;17.10;99.90;;;;;;5100469;28;20040;-74
2023/06/16 05:17:12;;;;;;;19.33;16.63;;;17.20;99.90;;;;;;5082055;28;20042;-75
2023/06/16 05:19:38;;;;;;;20.67;18.17;;;17.30;99.90;;;;;;5109440;28;20032;-75
2023/06/16 05:22:05;;;;;;;22.10;17.85;;;17.40;99.90;;;;;;5107091;28;20035;-75
2023/06/16 05:24:33;;;;;;;23.58;16.05;;;17.50;99.90;;;;;;5109305;27;20046;-76
2023/06/16 05:26:59;;;;;;;22.13;17.52;;;17.60;99.90;;;;;;5077303;28;20400;-75
2023/06/16 05:29:29;;;;;;;20.27;16.85;;;17.70;99.90;;;;;;5105504;27;20040;-75
2023/06/16 05:31:55;;;;;;;19.45;16.30;;;17.80;99.90;;;;;;5109105;27;20496;-76
2023/06/16 05:34:21;;;;;;;27.15;17.23;;;17.80;99.90;;;;;;5100704;27;20032;-76
2023/06/16 05:36:46;;;;;;;18.75;16.02;;;17.90;99.90;;;;;;5081213;28;20036;-76
2023/06/16 05:39:12;;;;;;;24.15;16.40;;;18.00;99.90;;;;;;5088732;28;20049;-76
2023/06/16 05:41:38;;;;;;;17.92;15.45;;;17.90;99.90;;;;;;5108125;27;20069;-75
2023/06/16 05:44:04;;;;;;;20.27;16.25;;;18.00;99.90;;;;;;5111924;27;20106;-75
2023/06/16 05:46:29;;;;;;;20.48;15.68;;;18.10;99.90;;;;;;5087766;27;20196;-74
2023/06/16 05:48:57;;;;;;;19.70;14.70;;;18.10;99.90;;;;;;5109060;28;20044;-75
2023/06/16 05:51:26;;;;;;;18.58;15.68;;;18.20;99.90;;;;;;5066268;28;20052;-74
2023/06/16 05:53:52;;;;;;;31.30;22.15;;;18.30;99.90;;;;;;5075282;27;20132;-75
2023/06/16 05:56:17;;;;;;;47.35;32.00;;;18.40;99.90;;;;;;5114839;27;20540;-76
2023/06/16 05:58:43;;;;;;;41.95;29.05;;;18.60;99.90;;;;;;5106947;27;20041;-75
2023/06/16 06:01:09;;;;;;;32.00;21.45;;;18.70;99.90;;;;;;5095117;28;20042;-76
2023/06/16 06:03:35;;;;;;;25.30;17.15;;;18.80;99.90;;;;;;5101902;28;20146;-76
2023/06/16 06:06:01;;;;;;;24.48;13.48;;;19.00;99.90;;;;;;5081609;28;20044;-75
2023/06/16 06:08:28;;;;;;;16.15;11.73;;;19.20;99.90;;;;;;5079621;28;20055;-77
2023/06/16 06:10:59;;;;;;;15.70;12.30;;;19.40;99.90;;;;;;5111203;27;20048;-73
2023/06/16 06:13:26;;;;;;;17.15;12.10;;;19.60;99.90;;;;;;5087532;28;20043;-75
2023/06/16 06:15:51;;;;;;;15.40;10.82;;;19.90;99.90;;;;;;5096810;28;20042;-76
2023/06/16 06:18:20;;;;;;;15.20;10.55;;;20.00;99.90;;;;;;5105041;28;20032;-76
2023/06/16 06:20:46;;;;;;;16.35;11.48;;;19.80;99.90;;;;;;5110748;28;20370;-76
2023/06/16 06:23:12;;;;;;;15.25;10.02;;;19.70;99.90;;;;;;5084742;27;20032;-75
2023/06/16 06:25:42;;;;;;;15.18;10.13;;;19.70;99.90;;;;;;5109737;27;20554;-74
2023/06/16 06:28:08;;;;;;;14.68;9.23;;;19.60;99.90;;;;;;5104158;27;20185;-76
2023/06/16 06:30:35;;;;;;;13.57;9.20;;;19.70;99.90;;;;;;5100280;27;20043;-75
2023/06/16 06:33:02;;;;;;;12.10;8.82;;;19.60;99.90;;;;;;5105750;27;20044;-76
2023/06/16 06:35:27;;;;;;;11.60;9.52;;;19.70;99.90;;;;;;5106274;28;20354;-74
2023/06/16 06:37:53;;;;;;;10.63;8.95;;;19.80;99.90;;;;;;5108463;27;20499;-75
2023/06/16 06:40:18;;;;;;;13.80;8.93;;;19.90;99.90;;;;;;5114982;28;20054;-75
2023/06/16 06:42:44;;;;;;;11.07;9.30;;;19.90;99.90;;;;;;5120655;27;20039;-75
2023/06/16 06:45:14;;;;;;;9.90;8.90;;;19.90;99.90;;;;;;5099042;28;20152;-76
2023/06/16 06:47:39;;;;;;;11.35;9.18;;;19.90;99.90;;;;;;5107063;28;20482;-76
2023/06/16 06:50:07;;;;;;;11.18;8.05;;;20.00;99.90;;;;;;5109786;28;20036;-75
2023/06/16 06:52:32;;;;;;;21.45;9.20;;;20.10;99.90;;;;;;5082604;28;20106;-77
2023/06/16 06:55:03;;;;;;;10.50;8.43;;;20.20;99.90;;;;;;5114742;28;20043;-76
2023/06/16 06:57:28;;;;;;;10.60;8.13;;;20.30;99.90;;;;;;5094356;28;20052;-77
2023/06/16 06:59:54;;;;;;;8.35;7.00;;;20.40;99.90;;;;;;5110342;28;20032;-76
2023/06/16 07:02:21;;;;;;;11.63;7.50;;;20.50;99.90;;;;;;5101414;27;20066;-74
2023/06/16 07:04:47;;;;;;;9.65;6.07;;;20.50;99.90;;;;;;5089371;28;20047;-76
2023/06/16 07:07:13;;;;;;;9.05;6.13;;;20.50;99.90;;;;;;5086552;28;20409;-75
2023/06/16 07:09:39;;;;;;;8.95;7.20;;;20.60;99.90;;;;;;5098091;28;20056;-76
2023/06/16 07:12:05;;;;;;;9.57;6.00;;;20.80;99.90;;;;;;5115458;28;20040;-75
2023/06/16 07:14:31;;;;;;;10.35;6.28;;;20.80;99.90;;;;;;5110756;28;20123;-74
2023/06/16 07:16:57;;;;;;;9.43;6.00;;;20.90;99.90;;;;;;5108145;28;20067;-77
2023/06/16 07:19:26;;;;;;;8.38;6.75;;;21.00;99.90;;;;;;5117834;28;20048;-76
2023/06/16 07:21:57;;;;;;;9.63;6.57;;;21.10;99.90;;;;;;5111166;28;20115;-74
2023/06/16 07:24:26;;;;;;;7.88;6.10;;;21.20;99.90;;;;;;5100582;28;20056;-76
2023/06/16 07:26:51;;;;;;;7.63;6.47;;;21.20;99.90;;;;;;5098584;28;20044;-76
2023/06/16 07:29:17;;;;;;;13.23;6.90;;;21.20;99.90;;;;;;5086045;28;20442;-76
2023/06/16 07:31:43;;;;;;;12.70;6.75;;;21.30;99.90;;;;;;5114777;28;20466;-76
2023/06/16 07:34:10;;;;;;;11.57;6.85;;;21.40;99.90;;;;;;5118102;28;20068;-74
2023/06/16 07:36:38;;;;;;;7.87;6.90;;;21.40;99.90;;;;;;5106196;28;20078;-76
2023/06/16 07:39:06;;;;;;;9.02;6.38;;;21.40;99.90;;;;;;5093559;28;20071;-76
2023/06/16 07:41:32;;;;;;;7.00;5.65;;;21.40;99.90;;;;;;5095647;28;20078;-76
2023/06/16 07:43:58;;;;;;;9.80;6.25;;;21.30;99.20;;;;;;5119251;27;20044;-75
2023/06/16 07:46:23;;;;;;;7.90;5.22;;;21.40;99.20;;;;;;5099476;28;20063;-76
2023/06/16 07:48:49;;;;;;;9.98;5.70;;;21.40;98.60;;;;;;5095846;28;20103;-76
2023/06/16 07:51:20;;;;;;;9.77;5.95;;;21.40;97.70;;;;;;5115651;28;20040;-75
2023/06/16 07:53:49;;;;;;;8.50;5.32;;;21.50;97.70;;;;;;5102951;28;20048;-75
2023/06/16 07:56:15;;;;;;;8.55;5.45;;;21.50;97.10;;;;;;5098608;28;20092;-76
2023/06/16 07:58:41;;;;;;;8.43;5.13;;;21.60;97.30;;;;;;5119753;28;20125;-76
2023/06/16 08:01:07;;;;;;;10.27;4.72;;;21.60;96.90;;;;;;5096939;28;20044;-77
2023/06/16 08:03:38;;;;;;;8.65;5.20;;;21.60;96.30;;;;;;5104038;28;20036;-76
2023/06/16 08:06:08;;;;;;;8.10;4.50;;;21.80;95.00;;;;;;5096993;28;20040;-76
2023/06/16 08:08:34;;;;;;;6.50;4.30;;;21.90;95.60;;;;;;5123445;27;20145;-76
2023/06/16 08:11:00;;;;;;;5.32;3.70;;;21.90;93.30;;;;;;5093380;28;20035;-76
2023/06/16 08:13:26;;;;;;;7.80;3.55;;;22.00;91.90;;;;;;5080325;28;20413;-76
2023/06/16 08:15:52;;;;;;;8.85;3.03;;;22.10;91.40;;;;;;5064729;28;20075;-76
2023/06/16 08:18:18;;;;;;;5.53;3.20;;;22.10;87.60;;;;;;5106294;28;20036;-76
2023/06/16 08:20:47;;;;;;;4.53;3.17;;;22.10;86.30;;;;;;5112269;28;20040;-76
2023/06/16 08:23:13;;;;;;;6.78;2.97;;;22.10;85.40;;;;;;5115134;28;20024;-76
2023/06/16 08:25:38;;;;;;;11.75;2.90;;;22.10;80.50;;;;;;5099190;28;20405;-75
2023/06/16 08:28:07;;;;;;;6.60;3.30;;;22.10;79.80;;;;;;5091750;28;20039;-76
2023/06/16 08:30:34;;;;;;;3.90;2.58;;;22.10;80.10;;;;;;5091310;28;20047;-76
2023/06/16 08:33:00;;;;;;;6.13;2.77;;;22.10;80.00;;;;;;5104451;28;20036;-75
2023/06/16 08:35:26;;;;;;;5.95;2.60;;;22.20;78.10;;;;;;5107052;28;20066;-77
2023/06/16 08:37:52;;;;;;;6.35;2.70;;;22.30;76.50;;;;;;5085228;28;20386;-76
2023/06/16 08:40:17;;;;;;;4.47;2.40;;;22.40;76.20;;;;;;5109158;28;20043;-75
2023/06/16 08:42:44;;;;;;;7.70;3.08;;;22.30;77.70;;;;;;5082505;28;20040;-76
2023/06/16 08:45:11;;;;;;;6.97;3.28;;;22.40;78.70;;;;;;5072580;28;20040;-75
2023/06/16 08:47:40;;;;;;;9.40;2.67;;;22.50;78.00;;;;;;5070643;28;20087;-75
2023/06/16 08:50:07;;;;;;;7.43;2.67;;;22.50;79.80;;;;;;5112034;28;20144;-77
2023/06/16 08:52:38;;;;;;;5.82;3.03;;;22.70;79.20;;;;;;5113928;28;20044;-75
2023/06/16 08:55:08;;;;;;;6.13;2.90;;;22.80;80.30;;;;;;5095267;28;20524;-76
2023/06/16 08:57:38;;;;;;;5.22;2.95;;;22.90;79.50;;;;;;5116626;28;20058;-79
2023/06/16 09:00:08;;;;;;;7.10;2.85;;;23.00;77.30;;;;;;5109204;28;20067;-76
2023/06/16 09:02:36;;;;;;;5.95;2.42;;;22.90;78.20;;;;;;5113860;27;20040;-76
2023/06/16 09:05:04;;;;;;;5.13;2.53;;;22.90;77.40;;;;;;5090725;28;20043;-76
2023/06/16 09:07:30;;;;;;;7.07;3.20;;;22.90;77.60;;;;;;5092504;28;20032;-77
2023/06/16 09:09:56;;;;;;;6.90;2.80;;;22.90;78.00;;;;;;5100835;28;20101;-76
2023/06/16 09:12:22;;;;;;;3.90;2.55;;;22.90;78.60;;;;;;5084757;28;20389;-76
2023/06/16 09:14:50;;;;;;;4.65;3.25;;;22.90;79.30;;;;;;5102213;28;20056;-77
2023/06/16 09:17:24;;;;;;;5.32;2.70;;;22.90;77.30;;;;;;5111827;27;20044;-75
2023/06/16 09:19:52;;;;;;;5.80;2.83;;;23.00;77.90;;;;;;5103564;28;20044;-77
2023/06/16 09:22:20;;;;;;;10.05;2.78;;;23.00;77.00;;;;;;5110019;28;20036;-76
2023/06/16 09:25:05;;;;;;;;;;;23.00;78.00;;;;;;5078937;28;20146;-76
2023/06/16 09:27:45;;;;;;;4.57;2.58;;;23.00;77.20;;;;;;5124780;27;20261;-78
2023/06/16 09:30:18;;;;;;;5.22;2.92;;;23.10;75.80;;;;;;5096982;27;20059;-76
2023/06/16 09:32:45;;;;;;;8.88;2.75;;;23.00;76.60;;;;;;5106546;27;20039;-76
2023/06/16 09:35:25;;;;;;;7.82;2.53;;;22.90;77.70;;;;;;5109754;28;20047;-76
2023/06/16 09:37:53;;;;;;;5.28;2.58;;;22.90;76.80;;;;;;5092219;27;20047;-76
2023/06/16 09:40:20;;;;;;;5.95;2.90;;;23.00;77.50;;;;;;5116017;27;20044;-76
2023/06/16 09:42:48;;;;;;;4.38;2.78;;;23.00;76.20;;;;;;5093008;28;20382;-77
2023/06/16 09:45:17;;;;;;;8.18;2.90;;;23.10;77.40;;;;;;5113460;27;20048;-76
2023/06/16 09:47:48;;;;;;;8.52;2.88;;;23.10;77.60;;;;;;5110467;28;20489;-75
2023/06/16 09:50:16;;;;;;;7.32;3.03;;;23.20;76.70;;;;;;5094341;28;20043;-75
2023/06/16 09:52:44;;;;;;;6.57;2.95;;;23.30;76.80;;;;;;5076545;28;20124;-75
2023/06/16 09:55:13;;;;;;;4.32;2.65;;;23.30;77.30;;;;;;5066144;28;20028;-76
2023/06/16 09:57:43;;;;;;;5.30;2.60;;;23.30;75.80;;;;;;5114399;28;20130;-77
2023/06/16 10:00:15;;;;;;;8.35;3.03;;;23.30;76.50;;;;;;5115445;28;20119;-76
2023/06/16 10:02:47;;;;;;;13.15;3.33;;;23.40;75.40;;;;;;5116276;28;20442;-75
2023/06/16 10:05:17;;;;;;;7.18;2.97;;;23.40;76.40;;;;;;5095161;28;20050;-76
2023/06/16 10:07:46;;;;;;;7.97;2.78;;;23.40;76.50;;;;;;5093792;28;20084;-75
2023/06/16 10:10:12;;;;;;;6.00;2.85;;;23.50;77.70;;;;;;5112224;28;20039;-75
2023/06/16 10:12:46;;;;;;;7.45;3.72;;;23.60;77.80;;;;;;5096008;28;20074;-76
2023/06/16 10:15:26;;;;;;;9.07;3.10;;;23.80;78.30;;;;;;5100124;28;20039;-77
2023/06/16 10:17:54;;;;;;;16.27;3.08;;;23.90;77.90;;;;;;5087303;28;20127;-76
2023/06/16 10:20:24;;;;;;;16.92;3.50;;;24.10;76.60;;;;;;5117172;27;20036;-77
2023/06/16 10:22:50;;;;;;;7.45;2.60;;;24.20;73.50;;;;;;5104442;28;20375;-76
2023/06/16 10:25:18;;;;;;;8.50;3.47;;;24.20;71.80;;;;;;5073452;28;20551;-77
2023/06/16 10:27:44;;;;;;;8.15;2.90;;;24.20;71.70;;;;;;5115676;28;20048;-75
2023/06/16 10:30:16;;;;;;;5.93;2.80;;;24.20;71.30;;;;;;5115425;28;20075;-76
2023/06/16 10:32:55;;;;;;;7.68;2.90;;;24.20;71.20;;;;;;5105667;28;20063;-77
2023/06/16 10:35:22;;;;;;;5.85;3.22;;;24.20;70.40;;;;;;5099972;28;20043;-77
2023/06/16 10:37:55;;;;;;;5.22;2.42;;;24.20;70.50;;;;;;5110189;28;20124;-76
2023/06/16 10:40:22;;;;;;;7.53;2.42;;;24.30;70.80;;;;;;5112234;28;20473;-77
2023/06/16 10:42:49;;;;;;;;;;;24.40;71.60;;;;;;5100780;28;20691;-76
2023/06/16 10:45:29;;;;;;;6.63;2.45;;;24.60;70.20;;;;;;5080645;28;19919;-75
2023/06/16 10:47:59;;;;;;;9.73;2.60;;;24.60;69.90;;;;;;5117203;28;21535;-75
2023/06/16 10:50:38;;;;;;;12.10;3.03;;;24.80;70.30;;;;;;5104358;28;20130;-76
2023/06/16 10:53:16;;;;;;;7.85;3.13;;;25.00;68.60;;;;;;5104900;28;20062;-76
2023/06/16 10:55:44;;;;;;;;;;;25.10;69.30;;;;;;5083359;28;20090;-76
2023/06/16 10:58:16;;;;;;;6.30;2.63;;;25.20;70.10;;;;;;5078616;28;19920;-76
2023/06/16 11:00:42;;;;;;;4.85;2.40;;;25.20;68.80;;;;;;5096070;28;20039;-75
2023/06/16 11:03:08;;;;;;;4.50;2.60;;;25.20;68.90;;;;;;5104223;28;20043;-75
2023/06/16 11:05:38;;;;;;;6.53;2.58;;;25.20;66.80;;;;;;5095956;28;20044;-75
2023/06/16 11:08:05;;;;;;;9.52;2.75;;;25.20;67.00;;;;;;5096019;28;20416;-76
2023/06/16 11:10:50;;;;;;;7.00;2.75;;;25.20;68.00;;;;;;5095704;28;20109;-75
2023/06/16 11:13:22;;;;;;;13.07;2.65;;;25.10;67.90;;;;;;5124182;28;20040;-76
2023/06/16 11:15:48;;;;;;;6.07;2.42;;;25.20;66.70;;;;;;5112940;28;20067;-75
2023/06/16 11:18:14;;;;;;;4.82;2.67;;;25.20;66.10;;;;;;5098555;28;20477;-74
2023/06/16 11:20:40;;;;;;;4.20;2.22;;;25.20;66.20;;;;;;5115156;28;20031;-76
2023/06/16 11:23:07;;;;;;;7.03;2.55;;;25.20;66.70;;;;;;5100864;28;20557;-76
2023/06/16 11:25:33;;;;;;;6.10;2.50;;;25.30;66.90;;;;;;5078320;28;20044;-75
2023/06/16 11:28:00;;;;;;;3.92;2.33;;;25.40;66.70;;;;;;5082104;28;20047;-76
2023/06/16 11:30:28;;;;;;;4.43;2.45;;;25.50;65.40;;;;;;5115956;28;20501;-75
2023/06/16 11:32:57;;;;;;;5.68;3.05;;;25.50;65.70;;;;;;5111101;28;20126;-75
2023/06/16 11:35:32;;;;;;;7.43;2.58;;;25.40;65.40;;;;;;5127228;28;20051;-77
2023/06/16 11:37:59;;;;;;;5.50;2.47;;;25.40;65.90;;;;;;5085596;28;20040;-76
2023/06/16 11:40:27;;;;;;;5.88;2.67;;;25.40;66.00;;;;;;5091280;28;20097;-77
2023/06/16 11:43:05;;;;;;;5.78;2.97;;;25.50;64.10;;;;;;5095251;27;20394;-76
2023/06/16 11:45:36;;;;;;;5.80;2.50;;;25.50;64.40;;;;;;5099535;28;20047;-75
2023/06/16 11:48:04;;;;;;;3.78;2.15;;;25.50;64.40;;;;;;5099962;28;20040;-76
2023/06/16 11:50:29;;;;;;;5.97;2.28;;;25.60;64.80;;;;;;5104878;28;20422;-74
2023/06/16 11:52:55;;;;;;;3.80;2.30;;;25.60;63.60;;;;;;5119250;28;20065;-75
2023/06/16 11:55:22;;;;;;;4.43;2.40;;;25.60;63.90;;;;;;5102874;28;20044;-76
2023/06/16 11:57:48;;;;;;;4.65;2.40;;;25.70;63.90;;;;;;5088742;28;20044;-76
2023/06/16 12:00:15;;;;;;;3.60;2.35;;;25.90;63.30;;;;;;5120770;27;20044;-77
2023/06/16 12:02:43;;;;;;;4.82;2.67;;;26.00;61.80;;;;;;5075376;28;20053;-75
2023/06/16 12:05:10;;;;;;;5.88;2.45;;;25.90;62.10;;;;;;5074823;28;20119;-76
2023/06/16 12:07:36;;;;;;;;;;;25.70;61.50;;;;;;5106506;28;20405;-76
2023/06/16 12:10:05;;;;;;;13.13;2.72;;;25.80;61.10;;;;;;5113987;28;19919;-75
2023/06/16 12:12:31;;;;;;;5.05;2.47;;;25.80;61.30;;;;;;5088598;28;20040;-75
2023/06/16 12:14:59;;;;;;;6.53;2.63;;;25.90;60.10;;;;;;5102319;28;20032;-76
2023/06/16 12:17:25;;;;;;;8.45;2.35;;;25.80;60.50;;;;;;5092959;28;20112;-76
2023/06/16 12:19:52;;;;;;;3.15;2.38;;;25.80;60.40;;;;;;5114691;28;20040;-76
2023/06/16 12:22:20;;;;;;;5.93;2.70;;;25.80;59.80;;;;;;5108361;28;20389;-75
2023/06/16 12:24:50;;;;;;;6.13;2.72;;;25.80;59.90;;;;;;5105148;28;20470;-76
2023/06/16 12:27:25;;;;;;;5.22;2.45;;;25.80;61.50;;;;;;5110891;28;20051;-75
2023/06/16 12:29:58;;;;;;;4.35;2.08;;;25.90;61.10;;;;;;5123721;27;20048;-75
2023/06/16 12:32:33;;;;;;;3.90;2.30;;;26.10;60.80;;;;;;5081740;28;20040;-75
2023/06/16 12:35:00;;;;;;;14.25;2.80;;;26.10;61.00;;;;;;5083352;28;20432;-76
2023/06/16 12:37:27;;;;;;;6.63;2.53;;;25.90;60.00;;;;;;5103875;28;20040;-76
2023/06/16 12:40:10;;;;;;;5.13;2.65;;;26.00;62.10;;;;;;5107551;28;20050;-75
2023/06/16 12:42:37;;;;;;;4.35;2.42;;;26.20;61.30;;;;;;5118038;28;20457;-74